Time;durP1;ratioP1;P1;durP2;ratioP2;P2;SDS_P1;SDS_P2;PMS_P1;PMS_P2;Temp;Humidity;BMP_temperature;BMP_pressure;BME280_temperature;BME280_humidity;BME280_pressure;Samples;Min_cycle;Max_cycle;Signal;HPM_P1;HPM_P2
2022/09/16 00:01:39;;;;;;;;;;;;;;;21.18;57.05;101321.50;7279867;19;153746;-55
2022/09/16 00:04:07;;;;;;;;;;;;;;;21.18;56.99;101318.72;7283333;19;152208;-55
2022/09/16 00:06:34;;;;;;;;;;;;;;;21.17;57.33;101317.03;7290008;19;151920;-55
2022/09/16 00:09:01;;;;;;;;;;;;;;;21.19;57.26;101316.72;7285019;19;151822;-55
2022/09/16 00:11:32;;;;;;;;;;;;;;;21.18;57.03;101312.25;7283047;19;153307;-55
2022/09/16 00:13:59;;;;;;;;;;;;;;;21.18;57.00;101313.09;7283364;19;153783;-54
2022/09/16 00:16:27;;;;;;;;;;;;;;;21.18;57.37;101313.09;7278457;19;155127;-55
2022/09/16 00:18:54;;;;;;;;;;;;;;;21.19;57.10;101313.94;7284898;19;152537;-55
2022/09/16 00:21:24;;;;;;;;;;;;;;;21.19;56.98;101311.13;7282035;19;152872;-55
2022/09/16 00:23:54;;;;;;;;;;;;;;;21.18;57.22;101315.06;7281288;19;152002;-54
2022/09/16 00:26:22;;;;;;;;;;;;;;;21.19;57.57;101314.75;7277792;19;154422;-55
2022/09/16 00:28:50;;;;;;;;;;;;;;;21.18;57.44;101315.91;7286523;19;154199;-55
2022/09/16 00:31:18;;;;;;;;;;;;;;;21.19;57.13;101319.53;7281595;19;152069;-55
2022/09/16 00:33:47;;;;;;;;;;;;;;;21.19;57.10;101306.34;7282252;19;152266;-55
2022/09/16 00:36:17;;;;;;;;;;;;;;;21.20;57.22;101315.59;7283700;19;152457;-55
2022/09/16 00:38:44;;;;;;;;;;;;;;;21.21;57.28;101322.91;7278830;19;152161;-54
2022/09/16 00:41:14;;;;;;;;;;;;;;;21.21;57.62;101311.66;7278472;19;153508;-55
2022/09/16 00:43:44;;;;;;;;;;;;;;;21.23;57.49;101314.97;7279205;19;152017;-55
2022/09/16 00:46:10;;;;;;;;;;;;;;;21.22;57.48;101316.13;7278621;19;152052;-55
2022/09/16 00:48:39;;;;;;;;;;;;;;;21.22;57.54;101310.50;7282190;19;152151;-55
2022/09/16 00:51:06;;;;;;;;;;;;;;;21.21;57.57;101318.09;7291176;19;151839;-55
2022/09/16 00:53:36;;;;;;;;;;;;;;;21.20;57.69;101319.25;7282488;19;153361;-55
2022/09/16 00:56:11;;;;;;;;;;;;;;;21.21;57.73;101322.91;7284053;19;151981;-55
2022/09/16 00:58:41;;;;;;;;;;;;;;;21.20;57.87;101324.88;7282141;19;152786;-55
2022/09/16 01:01:08;;;;;;;;;;;;;;;21.21;58.09;101334.13;7280930;19;153452;-55
2022/09/16 01:03:39;;;;;;;;;;;;;;;21.21;58.00;101322.91;7284132;19;152413;-55
2022/09/16 01:06:06;;;;;;;;;;;;;;;21.20;58.13;101329.66;7289705;19;152705;-55
2022/09/16 01:08:33;;;;;;;;;;;;;;;21.21;58.39;101325.72;7288109;19;152162;-55
2022/09/16 01:11:00;;;;;;;;;;;;;;;21.21;58.07;101334.94;7289939;19;153516;-55
2022/09/16 01:13:28;;;;;;;;;;;;;;;21.23;58.30;101326.22;7294991;19;153324;-56
2022/09/16 01:15:56;;;;;;;;;;;;;;;21.22;58.25;101319.75;7288008;19;152094;-55
2022/09/16 01:18:26;;;;;;;;;;;;;;;21.21;58.35;101323.72;7289347;19;153001;-55
2022/09/16 01:20:55;;;;;;;;;;;;;;;21.23;58.68;101323.41;7285542;19;152395;-55
2022/09/16 01:23:25;;;;;;;;;;;;;;;21.23;58.45;101323.41;7289564;19;153435;-55
2022/09/16 01:25:55;;;;;;;;;;;;;;;21.24;58.69;101322.28;7288567;19;152799;-55
2022/09/16 01:28:25;;;;;;;;;;;;;;;21.23;58.68;101326.22;7286836;19;154178;-55
2022/09/16 01:31:00;;;;;;;;;;;;;;;21.24;58.53;101328.75;7286338;19;152108;-55
2022/09/16 01:33:27;;;;;;;;;;;;;;;21.24;58.72;101327.91;7295681;19;152716;-55
2022/09/16 01:35:54;;;;;;;;;;;;;;;21.26;58.91;101325.59;7283980;19;152186;-55
2022/09/16 01:38:24;;;;;;;;;;;;;;;21.26;58.76;101331.22;7290038;19;153371;-54
2022/09/16 01:40:53;;;;;;;;;;;;;;;21.24;59.13;101320.31;7285732;19;152558;-55
2022/09/16 01:43:24;;;;;;;;;;;;;;;21.29;58.77;101325.03;7288397;19;151938;-55
2022/09/16 01:45:54;;;;;;;;;;;;;;;21.28;59.19;101326.16;7286089;19;154171;-55
2022/09/16 01:48:23;;;;;;;;;;;;;;;21.28;59.26;101321.38;7287455;19;153148;-55
2022/09/16 01:50:56;;;;;;;;;;;;;;;21.30;59.26;101326.69;7287711;19;151847;-55
2022/09/16 01:53:29;;;;;;;;;;;;;;;21.29;59.22;101320.25;7289643;19;153532;-55
2022/09/16 01:55:56;;;;;;;;;;;;;;;21.29;59.24;101320.25;7291904;19;152931;-55
2022/09/16 01:58:28;;;;;;;;;;;;;;;21.28;59.04;101321.38;7287026;19;152749;-56
2022/09/16 02:01:01;;;;;;;;;;;;;;;21.29;58.97;101320.25;7281717;19;152672;-55
2022/09/16 02:03:32;;;;;;;;;;;;;;;21.31;59.25;101325.53;7284708;19;151920;-55
2022/09/16 02:06:04;;;;;;;;;;;;;;;21.30;59.09;101321.06;7287390;19;153475;-55
2022/09/16 02:08:34;;;;;;;;;;;;;;;21.30;58.83;101323.88;7286948;19;154473;-55
2022/09/16 02:11:03;;;;;;;;;;;;;;;21.31;58.99;101322.72;7288011;19;154175;-55
2022/09/16 02:13:34;;;;;;;;;;;;;;;21.31;59.32;101328.34;7285946;19;153119;-55
2022/09/16 02:16:06;;;;;;;;;;;;;;;21.32;58.93;101332.84;7285438;19;152214;-55
2022/09/16 02:18:38;;;;;;;;;;;;;;;21.32;58.92;101335.63;7295620;19;152601;-56
2022/09/16 02:21:08;;;;;;;;;;;;;;;21.32;59.02;101337.63;7284874;19;154187;-55
2022/09/16 02:23:39;;;;;;;;;;;;;;;21.33;58.91;101331.69;7285606;19;153687;-55
2022/09/16 02:26:06;;;;;;;;;;;;;;;21.33;58.91;101326.06;7288463;19;153808;-55
2022/09/16 02:28:33;;;;;;;;;;;;;;;21.34;59.31;101329.72;7286168;19;153529;-55
2022/09/16 02:31:02;;;;;;;;;;;;;;;21.35;59.01;101328.59;7285555;19;152733;-55
2022/09/16 02:33:32;;;;;;;;;;;;;;;21.33;59.35;101323.25;7286639;19;153293;-55
2022/09/16 02:36:02;;;;;;;;;;;;;;;21.33;59.36;101323.25;7285457;19;154229;-55
2022/09/16 02:38:32;;;;;;;;;;;;;;;21.33;59.30;101320.47;7287113;19;151751;-55
2022/09/16 02:41:00;;;;;;;;;;;;;;;21.34;58.91;101332.53;7287907;19;153199;-55
2022/09/16 02:43:27;;;;;;;;;;;;;;;21.33;59.02;101331.69;7287617;19;153031;-55
2022/09/16 02:46:02;;;;;;;;;;;;;;;21.33;58.98;101336.47;7282845;19;152214;-55
2022/09/16 02:48:29;;;;;;;;;;;;;;;21.33;59.32;101330.84;7282888;19;151947;-55
2022/09/16 02:51:01;;;;;;;;;;;;;;;21.32;59.46;101335.63;7282574;19;152008;-55
2022/09/16 02:53:31;;;;;;;;;;;;;;;21.32;59.35;101335.63;7287958;19;152731;-55
2022/09/16 02:56:01;;;;;;;;;;;;;;;21.33;59.48;101334.50;7280746;19;152839;-55
2022/09/16 02:58:29;;;;;;;;;;;;;;;21.33;59.47;101337.31;7285331;19;152042;-55
2022/09/16 03:00:57;;;;;;;;;;;;;;;21.32;59.30;101334.81;7284940;19;152634;-55
2022/09/16 03:03:26;;;;;;;;;;;;;;;21.31;59.11;101333.97;7291403;19;152245;-55
2022/09/16 03:05:57;;;;;;;;;;;;;;;21.32;59.58;101324.41;7283578;19;152625;-56
2022/09/16 03:08:25;;;;;;;;;;;;;;;21.33;59.15;101333.66;7283174;19;152273;-55
2022/09/16 03:10:53;;;;;;;;;;;;;;;21.32;59.13;101334.81;7285761;19;154620;-55
2022/09/16 03:13:22;;;;;;;;;;;;;;;21.32;59.55;101330.03;7281297;19;151907;-55
2022/09/16 03:15:53;;;;;;;;;;;;;;;21.32;59.13;101323.56;7284707;19;154532;-56
2022/09/16 03:18:26;;;;;;;;;;;;;;;21.32;59.54;101320.75;7286021;19;152969;-55
2022/09/16 03:20:58;;;;;;;;;;;;;;;21.29;59.61;101325.84;7285241;19;153299;-55
2022/09/16 03:23:28;;;;;;;;;;;;;;;21.30;59.42;101333.13;7284869;19;154277;-55
2022/09/16 03:26:03;;;;;;;;;;;;;;;21.30;59.57;101330.31;7290010;19;152056;-55
2022/09/16 03:28:30;;;;;;;;;;;;;;;21.30;59.65;101326.69;7284412;19;153921;-55
2022/09/16 03:30:57;;;;;;;;;;;;;;;21.32;59.35;101327.22;7284716;19;152338;-55
2022/09/16 03:33:28;;;;;;;;;;;;;;;21.30;59.57;101326.69;7285104;19;152688;-55
2022/09/16 03:35:58;;;;;;;;;;;;;;;21.30;59.15;101329.50;7283750;19;154106;-55
2022/09/16 03:38:27;;;;;;;;;;;;;;;21.30;59.37;101332.31;7285318;19;151863;-55
2022/09/16 03:40:54;;;;;;;;;;;;;;;21.29;59.56;101334.28;7284795;19;152753;-55
2022/09/16 03:43:21;;;;;;;;;;;;;;;21.30;59.35;101346.38;7283789;19;152368;-55
2022/09/16 03:45:50;;;;;;;;;;;;;;;21.30;59.25;101341.56;7288768;19;155372;-55
2022/09/16 03:48:19;;;;;;;;;;;;;;;21.29;59.37;101339.91;7281385;19;153955;-55
2022/09/16 03:50:46;;;;;;;;;;;;;;;21.30;59.54;101346.38;7282139;19;152560;-55
2022/09/16 03:53:14;;;;;;;;;;;;;;;21.30;59.42;101335.13;7286461;19;152433;-55
2022/09/16 03:55:42;;;;;;;;;;;;;;;21.30;59.64;101338.75;7283740;19;154023;-55
2022/09/16 03:58:10;;;;;;;;;;;;;;;21.29;59.67;101339.06;7285267;19;154210;-55
2022/09/16 04:00:40;;;;;;;;;;;;;;;21.29;59.65;101336.25;7283264;19;153468;-55
2022/09/16 04:03:10;;;;;;;;;;;;;;;21.29;59.42;101330.63;7283397;19;153422;-56
2022/09/16 04:05:38;;;;;;;;;;;;;;;21.29;59.32;101339.06;7283467;19;151996;-55
2022/09/16 04:08:08;;;;;;;;;;;;;;;21.29;59.65;101341.88;7288172;19;152421;-55
2022/09/16 04:10:36;;;;;;;;;;;;;;;21.28;59.57;101345.81;7284586;19;152305;-55
2022/09/16 04:13:04;;;;;;;;;;;;;;;21.28;59.54;101351.44;7284295;19;151952;-55
2022/09/16 04:15:35;;;;;;;;;;;;;;;21.29;59.81;101336.25;7280451;19;151952;-56
2022/09/16 04:18:03;;;;;;;;;;;;;;;21.27;59.75;101344.16;7282546;19;152192;-55
2022/09/16 04:20:29;;;;;;;;;;;;;;;21.27;59.51;101338.53;7283359;19;152086;-55
2022/09/16 04:22:56;;;;;;;;;;;;;;;21.27;59.79;101342.19;7283742;19;154604;-55
2022/09/16 04:25:23;;;;;;;;;;;;;;;21.28;59.65;101334.59;7279713;19;152377;-55
2022/09/16 04:27:50;;;;;;;;;;;;;;;21.26;59.92;101339.66;7283754;19;152726;-55
2022/09/16 04:30:19;;;;;;;;;;;;;;;21.27;59.67;101349.78;7288996;19;153501;-55
2022/09/16 04:32:45;;;;;;;;;;;;;;;21.27;60.22;101349.78;7282351;19;153401;-55
2022/09/16 04:35:18;;;;;;;;;;;;;;;21.27;60.06;101356.22;7281051;19;153603;-55
2022/09/16 04:37:45;;;;;;;;;;;;;;;21.27;59.82;101356.22;7283803;19;152569;-55
2022/09/16 04:40:13;;;;;;;;;;;;;;;21.27;59.90;101353.41;7282642;19;152142;-55
2022/09/16 04:42:42;;;;;;;;;;;;;;;21.27;60.35;101349.78;7277209;19;153257;-55
2022/09/16 04:45:11;;;;;;;;;;;;;;;21.27;60.21;101352.56;7278107;19;152521;-55
2022/09/16 04:47:37;;;;;;;;;;;;;;;21.27;60.12;101347.78;7281067;19;152111;-55
2022/09/16 04:50:05;;;;;;;;;;;;;;;21.27;60.50;101349.78;7281273;19;153841;-55
2022/09/16 04:52:33;;;;;;;;;;;;;;;21.27;60.49;101345.00;7291563;19;152369;-55
2022/09/16 04:55:01;;;;;;;;;;;;;;;21.27;60.06;101332.91;7280694;19;154633;-55
2022/09/16 04:57:31;;;;;;;;;;;;;;;21.27;60.43;101345.00;7279451;19;151694;-55
2022/09/16 04:59:58;;;;;;;;;;;;;;;21.27;60.25;101346.97;7280567;19;152680;-55
2022/09/16 05:02:27;;;;;;;;;;;;;;;21.27;60.16;101350.59;7278175;19;152297;-55
2022/09/16 05:04:54;;;;;;;;;;;;;;;21.26;60.08;101354.56;7280611;19;151959;-55
2022/09/16 05:07:22;;;;;;;;;;;;;;;21.26;60.33;101362.13;7283154;19;152442;-55
2022/09/16 05:09:50;;;;;;;;;;;;;;;21.26;59.89;101354.56;7281974;19;154187;-55
2022/09/16 05:12:18;;;;;;;;;;;;;;;21.25;60.33;101363.31;7283439;19;152269;-55
2022/09/16 05:14:47;;;;;;;;;;;;;;;21.24;60.30;101354.03;7285260;19;152012;-55
2022/09/16 05:17:14;;;;;;;;;;;;;;;21.24;60.10;101356.00;7278159;19;152659;-56
2022/09/16 05:20:02;;;;;;;;;;;;;;;21.22;60.01;101353.50;7280878;19;153372;-55
2022/09/16 05:22:30;;;;;;;;;;;;;;;21.23;60.06;101360.78;7280233;19;152614;-55
2022/09/16 05:24:58;;;;;;;;;;;;;;;21.23;60.07;101355.16;7279803;19;152196;-56
2022/09/16 05:27:29;;;;;;;;;;;;;;;21.23;60.24;101360.78;7281413;19;152006;-56
2022/09/16 05:29:57;;;;;;;;;;;;;;;21.22;60.16;101358.28;7278358;19;154204;-55
2022/09/16 05:32:26;;;;;;;;;;;;;;;21.23;59.85;101365.56;7282267;19;151732;-55
2022/09/16 05:34:54;;;;;;;;;;;;;;;21.23;60.22;101368.38;7280504;19;153221;-56
2022/09/16 05:37:19;;;;;;;;;;;;;;;21.20;59.89;101367.03;7288060;19;151606;-56
2022/09/16 05:39:46;;;;;;;;;;;;;;;21.21;59.67;101377.09;7280066;19;152492;-56
2022/09/16 05:42:14;;;;;;;;;;;;;;;21.21;59.79;101371.47;7278398;19;153301;-55
2022/09/16 05:44:43;;;;;;;;;;;;;;;21.21;59.84;101379.91;7279488;19;151827;-55
2022/09/16 05:47:12;;;;;;;;;;;;;;;21.21;60.20;101379.09;7276155;19;152161;-55
2022/09/16 05:49:41;;;;;;;;;;;;;;;21.21;60.32;101388.34;7283555;19;153758;-55
2022/09/16 05:52:08;;;;;;;;;;;;;;;21.21;60.47;101390.34;7289188;19;152077;-55
2022/09/16 05:54:34;;;;;;;;;;;;;;;21.22;60.07;101394.81;7285445;19;153415;-55
2022/09/16 05:57:03;;;;;;;;;;;;;;;21.20;60.09;101391.47;7291773;19;152512;-55
2022/09/16 05:59:32;;;;;;;;;;;;;;;21.21;60.21;101387.53;7283669;19;151872;-55
2022/09/16 06:02:00;;;;;;;;;;;;;;;21.21;60.40;101387.53;7282476;19;152148;-55
2022/09/16 06:04:28;;;;;;;;;;;;;;;21.20;60.36;101383.03;7287276;19;152817;-55
2022/09/16 06:06:56;;;;;;;;;;;;;;;21.20;60.35;101388.66;7285882;19;152126;-55
2022/09/16 06:09:25;;;;;;;;;;;;;;;21.19;60.18;101387.81;7284588;19;153286;-55
2022/09/16 06:11:53;;;;;;;;;;;;;;;21.20;59.99;101395.13;7288880;19;152908;-55
2022/09/16 06:14:21;;;;;;;;;;;;;;;21.20;60.33;101397.09;7283778;19;151965;-55
2022/09/16 06:16:49;;;;;;;;;;;;;;;21.19;60.35;101398.22;7285513;19;154724;-55
2022/09/16 06:19:17;;;;;;;;;;;;;;;21.19;60.48;101395.41;7291412;19;152737;-55
2022/09/16 06:21:44;;;;;;;;;;;;;;;21.15;60.66;101397.16;7282003;19;152198;-55
2022/09/16 06:24:11;;;;;;;;;;;;;;;21.09;60.93;101399.16;7285297;19;152304;-55
2022/09/16 06:29:09;;;;;;;;;;;;;;;21.06;60.72;101407.38;7283173;19;152627;-55
2022/09/16 06:31:37;;;;;;;;;;;;;;;21.01;60.96;101401.81;7285081;19;152467;-55
2022/09/16 06:34:05;;;;;;;;;;;;;;;20.99;60.44;101404.91;7284718;19;153576;-55
2022/09/16 06:36:35;;;;;;;;;;;;;;;21.00;60.74;101417.00;7283202;19;153312;-55
2022/09/16 06:39:07;;;;;;;;;;;;;;;20.97;60.65;101411.97;7288080;19;152375;-55
2022/09/16 06:41:34;;;;;;;;;;;;;;;20.99;60.89;101420.94;7290887;19;152631;-55
2022/09/16 06:44:01;;;;;;;;;;;;;;;20.99;59.32;101426.53;7286152;19;151759;-55
2022/09/16 06:46:30;;;;;;;;;;;;;;;20.95;54.77;101434.75;7234367;19;154258;-55
2022/09/16 06:49:01;;;;;;;;;;;;;;;20.71;50.22;101429.16;7269472;19;153441;-54
2022/09/16 06:51:33;;;;;;;;;;;;;;;20.60;49.51;101426.72;7286643;19;152142;-54
2022/09/16 06:54:01;;;;;;;;;;;;;;;20.47;49.16;101422.66;7286752;19;154232;-54
2022/09/16 06:56:32;;;;;;;;;;;;;;;20.40;49.67;101424.97;7277404;19;154073;-54
2022/09/16 06:58:59;;;;;;;;;;;;;;;20.22;49.05;101423.72;7285406;19;152343;-54
2022/09/16 07:01:29;;;;;;;;;;;;;;;20.14;49.54;101423.50;7284517;19;152643;-54
2022/09/16 07:03:57;;;;;;;;;;;;;;;20.01;49.29;101427.84;7291533;19;154070;-54
2022/09/16 07:06:24;;;;;;;;;;;;;;;19.95;49.86;101432.63;7284771;19;151914;-55
2022/09/16 07:09:11;;;;;;;;;;;;;;;19.84;49.71;101431.06;7284962;19;155318;-54
2022/09/16 07:11:43;;;;;;;;;;;;;;;19.79;49.72;101438.66;7286343;19;153283;-54
2022/09/16 07:14:16;;;;;;;;;;;;;;;19.73;49.77;101440.66;7282691;19;153247;-54
2022/09/16 07:16:44;;;;;;;;;;;;;;;19.65;50.36;101444.09;7279051;19;152407;-54
2022/09/16 07:19:22;;;;;;;;;;;;;;;19.57;49.85;101446.66;7286180;19;152269;-55
2022/09/16 07:21:49;;;;;;;;;;;;;;;19.54;50.14;101437.69;7283220;19;153143;-54
2022/09/16 07:24:16;;;;;;;;;;;;;;;19.47;50.73;101441.97;7237308;19;155917;-55
2022/09/16 07:26:43;;;;;;;;;;;;;;;19.40;52.21;101442.22;7285031;19;151840;-55
2022/09/16 07:29:14;;;;;;;;;;;;;;;19.50;53.70;101433.81;7277908;19;152995;-55
2022/09/16 07:31:41;;;;;;;;;;;;;;;19.59;54.98;101442.44;7265352;19;153545;-55
2022/09/16 07:34:10;;;;;;;;;;;;;;;19.62;55.03;101439.06;7277670;19;153817;-55
2022/09/16 07:36:39;;;;;;;;;;;;;;;19.64;55.81;101448.00;7278717;19;154006;-55
2022/09/16 07:39:07;;;;;;;;;;;;;;;19.66;55.72;101439.31;7282026;19;152065;-55
2022/09/16 07:41:36;;;;;;;;;;;;;;;19.69;55.84;101453.59;7281023;19;153239;-55
2022/09/16 07:44:02;;;;;;;;;;;;;;;19.72;56.15;101454.97;7274702;19;152949;-55
2022/09/16 07:46:31;;;;;;;;;;;;;;;19.75;56.61;101454.41;7285194;19;152424;-55
2022/09/16 07:48:59;;;;;;;;;;;;;;;19.77;56.49;101464.19;7274872;19;153790;-55
2022/09/16 07:51:27;;;;;;;;;;;;;;;19.78;56.82;101463.06;7276180;19;152901;-55
2022/09/16 07:53:54;;;;;;;;;;;;;;;19.84;56.81;101472.28;7280766;19;152676;-54
2022/09/16 07:56:24;;;;;;;;;;;;;;;19.86;56.32;101470.84;7285203;19;153416;-55
2022/09/16 07:58:51;;;;;;;;;;;;;;;19.89;56.63;101473.09;7281370;19;152082;-55
2022/09/16 08:01:19;;;;;;;;;;;;;;;19.92;56.67;101469.69;7284007;19;153726;-55
2022/09/16 08:03:46;;;;;;;;;;;;;;;19.95;56.85;101474.72;7282306;19;154149;-55
2022/09/16 08:06:16;;;;;;;;;;;;;;;19.98;56.53;101474.16;7282435;19;152773;-55
2022/09/16 08:08:44;;;;;;;;;;;;;;;20.02;56.37;101470.75;7292760;19;153083;-55
2022/09/16 08:11:13;;;;;;;;;;;;;;;20.03;56.40;101472.44;7281871;19;152704;-55
2022/09/16 08:13:41;;;;;;;;;;;;;;;20.05;56.56;101476.59;7285122;19;152737;-55
2022/09/16 08:16:11;;;;;;;;;;;;;;;20.06;56.33;101481.09;7281652;19;153467;-55
2022/09/16 08:18:38;;;;;;;;;;;;;;;20.09;56.45;101490.88;7284879;19;152479;-55
2022/09/16 08:21:06;;;;;;;;;;;;;;;20.11;56.31;101488.63;7280330;19;152143;-55
2022/09/16 08:23:34;;;;;;;;;;;;;;;20.13;56.68;101486.34;7284237;19;153783;-55
2022/09/16 08:26:02;;;;;;;;;;;;;;;20.12;56.39;101491.16;7282497;19;152341;-55
2022/09/16 08:28:29;;;;;;;;;;;;;;;20.13;56.70;101501.22;7281171;19;152838;-55
2022/09/16 08:31:19;;;;;;;;;;;;;;;20.14;56.69;101505.72;7286236;19;153814;-55
2022/09/16 08:33:47;;;;;;;;;;;;;;;20.17;56.25;101499.50;7277424;19;151950;-55
2022/09/16 08:36:15;;;;;;;;;;;;;;;20.15;56.49;101495.31;7282514;19;152260;-55
2022/09/16 08:38:43;;;;;;;;;;;;;;;20.17;56.47;101501.50;7282195;19;152174;-55
2022/09/16 08:41:13;;;;;;;;;;;;;;;20.15;56.61;101506.56;7280009;19;153380;-55
2022/09/16 08:43:44;;;;;;;;;;;;;;;20.17;56.67;101507.09;7280073;19;154166;-55
2022/09/16 08:46:13;;;;;;;;;;;;;;;20.19;56.69;101508.47;7279302;19;151746;-55
2022/09/16 08:48:48;;;;;;;;;;;;;;;20.22;56.62;101515.47;7280255;19;152365;-55
2022/09/16 08:51:15;;;;;;;;;;;;;;;20.24;56.61;101513.22;7282671;19;152619;-55
2022/09/16 08:53:48;;;;;;;;;;;;;;;20.23;56.26;101519.94;7290352;19;152172;-55
2022/09/16 08:56:19;;;;;;;;;;;;;;;20.26;57.60;101516.56;7282574;19;154268;-59
2022/09/16 08:58:48;;;;;;;;;;;;;;;20.41;57.92;101520.09;7281343;19;152322;-55
2022/09/16 09:01:18;;;;;;;;;;;;;;;20.49;59.13;101524.25;7281185;19;151863;-55
2022/09/16 09:03:45;;;;;;;;;;;;;;;20.58;58.58;101530.09;7278432;19;152871;-55
2022/09/16 09:06:12;;;;;;;;;;;;;;;20.65;58.72;101533.38;7230667;19;155264;-55
2022/09/16 09:08:39;;;;;;;;;;;;;;;20.67;58.25;101534.75;7276352;19;151586;-55
2022/09/16 09:11:24;;;;;;;;;;;;;;;20.70;58.22;101527.72;7276403;19;154585;-55
2022/09/16 09:16:21;;;;;;;;;;;;;;;20.69;57.49;101532.50;7281945;19;153303;-55
2022/09/16 09:18:51;;;;;;;;;;;;;;;20.71;57.24;101540.63;7277002;19;152034;-55
2022/09/16 09:21:23;;;;;;;;;;;;;;;20.67;57.03;101537.56;7277942;19;153313;-55
2022/09/16 09:23:53;;;;;;;;;;;;;;;20.66;56.88;101540.69;7277619;19;153324;-55
2022/09/16 09:26:21;;;;;;;;;;;;;;;20.68;57.01;101544.84;7284128;19;151883;-55
2022/09/16 09:28:49;;;;;;;;;;;;;;;20.65;56.87;101539.00;7283743;19;151893;-55
2022/09/16 09:31:24;;;;;;;;;;;;;;;20.65;56.87;101541.81;7282378;19;153856;-55
2022/09/16 09:33:53;;;;;;;;;;;;;;;20.64;56.80;101540.97;7285128;19;152286;-55
2022/09/16 09:36:23;;;;;;;;;;;;;;;20.62;56.95;101548.84;7285336;19;153758;-55
2022/09/16 09:38:53;;;;;;;;;;;;;;;20.59;56.86;101545.78;7294938;19;154419;-55
2022/09/16 09:41:23;;;;;;;;;;;;;;;20.62;56.99;101550.81;7287543;19;153536;-55
2022/09/16 09:43:53;;;;;;;;;;;;;;;20.60;56.92;101548.31;7286917;19;153267;-55
2022/09/16 09:46:22;;;;;;;;;;;;;;;20.58;56.83;101552.56;7286287;19;153968;-55
2022/09/16 09:48:55;;;;;;;;;;;;;;;20.59;56.94;101554.19;7285930;19;154219;-55
2022/09/16 09:51:28;;;;;;;;;;;;;;;20.59;57.25;101548.59;7287312;19;152911;-55
2022/09/16 09:54:00;;;;;;;;;;;;;;;20.58;56.98;101550.56;7285724;19;152098;-55
2022/09/16 09:59:03;;;;;;;;;;;;;;;20.60;56.76;101551.09;7292429;19;155643;-55
2022/09/16 10:01:28;;;;;;;;;;;;;;;20.60;56.70;101556.72;7287566;19;152652;-55
2022/09/16 10:03:57;;;;;;;;;;;;;;;20.63;57.10;101552.47;7283288;19;155264;-55
2022/09/16 10:06:26;;;;;;;;;;;;;;;20.62;56.79;101553.63;7286344;19;152426;-55
2022/09/16 10:08:55;;;;;;;;;;;;;;;20.65;56.80;101545.44;7284358;19;152120;-55
2022/09/16 10:11:25;;;;;;;;;;;;;;;20.66;57.30;101549.94;7284821;19;152223;-55
2022/09/16 10:13:54;;;;;;;;;;;;;;;20.68;57.31;101547.66;7286380;19;152208;-55
2022/09/16 10:16:21;;;;;;;;;;;;;;;20.70;57.13;101539.78;7285714;19;152985;-55
2022/09/16 10:18:51;;;;;;;;;;;;;;;20.71;56.77;101535.00;7285261;19;152971;-55
2022/09/16 10:21:18;;;;;;;;;;;;;;;20.72;56.50;101534.69;7295172;19;152146;-55
2022/09/16 10:23:53;;;;;;;;;;;;;;;20.74;56.74;101538.06;7285985;19;153983;-55
2022/09/16 10:26:21;;;;;;;;;;;;;;;20.76;56.83;101532.13;7287271;19;152051;-55
2022/09/16 10:28:53;;;;;;;;;;;;;;;20.75;56.87;101538.91;7280919;19;153321;-55
2022/09/16 10:31:26;;;;;;;;;;;;;;;20.76;56.58;101532.13;7284373;19;153278;-55
2022/09/16 10:33:53;;;;;;;;;;;;;;;20.74;56.96;101540.88;7281887;19;152597;-55
2022/09/16 10:36:22;;;;;;;;;;;;;;;20.75;56.93;101536.94;7280840;19;154448;-55
2022/09/16 10:39:00;;;;;;;;;;;;;;;20.79;56.48;101537.19;7281093;19;153084;-55
2022/09/16 10:41:33;;;;;;;;;;;;;;;20.80;56.85;101534.06;7282612;19;151984;-55
2022/09/16 10:44:03;;;;;;;;;;;;;;;20.78;56.66;101538.31;7288106;19;152849;-55
2022/09/16 10:46:30;;;;;;;;;;;;;;;20.75;56.94;101536.94;7280631;19;152572;-55
2022/09/16 10:49:01;;;;;;;;;;;;;;;20.74;56.69;101543.69;7279224;19;152555;-55
2022/09/16 10:51:30;;;;;;;;;;;;;;;20.76;56.78;101540.56;7280250;19;153651;-55
2022/09/16 10:54:00;;;;;;;;;;;;;;;20.76;56.81;101534.94;7280141;19;152242;-55
2022/09/16 10:56:28;;;;;;;;;;;;;;;20.75;56.45;101528.50;7282738;19;153138;-55
2022/09/16 10:58:58;;;;;;;;;;;;;;;20.77;56.79;101542.25;7280562;19;153440;-55
2022/09/16 11:01:28;;;;;;;;;;;;;;;20.80;56.58;101536.84;7281686;19;152654;-55
2022/09/16 11:03:59;;;;;;;;;;;;;;;20.81;56.71;101538.53;7281125;19;152782;-55
2022/09/16 11:06:30;;;;;;;;;;;;;;;20.84;56.71;101528.69;7289282;19;154548;-55
2022/09/16 11:08:57;;;;;;;;;;;;;;;20.84;56.85;101532.34;7275995;19;154179;-55
2022/09/16 11:11:24;;;;;;;;;;;;;;;20.85;56.42;101534.00;7281472;19;154029;-55
2022/09/16 11:13:58;;;;;;;;;;;;;;;20.86;56.36;101543.28;7279967;19;152308;-55
2022/09/16 11:16:27;;;;;;;;;;;;;;;20.85;56.75;101555.63;7280109;19;153878;-55
2022/09/16 11:18:54;;;;;;;;;;;;;;;20.82;56.35;101554.25;7279120;19;153597;-55
2022/09/16 11:21:23;;;;;;;;;;;;;;;20.87;56.68;101547.75;7281796;19;152369;-55
2022/09/16 11:23:53;;;;;;;;;;;;;;;20.89;56.48;101550.28;7280870;19;152710;-54
2022/09/16 11:26:23;;;;;;;;;;;;;;;20.89;56.76;101547.47;7280617;19;153948;-56
2022/09/16 11:28:52;;;;;;;;;;;;;;;20.89;56.37;101545.50;7284283;19;152300;-55
2022/09/16 11:31:27;;;;;;;;;;;;;;;20.92;56.50;101549.69;7274544;19;151987;-56
2022/09/16 11:33:57;;;;;;;;;;;;;;;20.95;56.62;101549.06;7284353;19;152354;-55
2022/09/16 11:36:26;;;;;;;;;;;;;;;20.98;56.46;101542.88;7278797;19;152177;-55
2022/09/16 11:38:54;;;;;;;;;;;;;;;21.00;55.93;101546.22;7283814;19;154435;-55
2022/09/16 11:41:24;;;;;;;;;;;;;;;21.01;55.94;101531.03;7282687;19;152544;-55
2022/09/16 11:43:54;;;;;;;;;;;;;;;21.04;55.86;101542.53;7284378;19;152488;-55
2022/09/16 11:46:26;;;;;;;;;;;;;;;21.05;56.09;101537.75;7280248;19;152801;-55
2022/09/16 11:48:56;;;;;;;;;;;;;;;21.06;56.20;101539.41;7279507;19;153329;-56
2022/09/16 11:51:25;;;;;;;;;;;;;;;21.08;56.21;101531.50;7289027;19;152527;-55
2022/09/16 11:53:55;;;;;;;;;;;;;;;21.09;56.15;101527.56;7284772;19;151863;-55
2022/09/16 11:56:25;;;;;;;;;;;;;;;21.07;56.34;101530.72;7284158;19;153732;-55
2022/09/16 11:58:55;;;;;;;;;;;;;;;21.08;56.35;101528.69;7280994;19;152334;-55
2022/09/16 12:01:26;;;;;;;;;;;;;;;21.10;55.93;101534.88;7280602;19;151821;-55
2022/09/16 12:06:24;;;;;;;;;;;;;;;21.11;55.51;101543.03;7282461;19;154523;-55
2022/09/16 12:08:51;;;;;;;;;;;;;;;21.11;56.15;101542.19;7276871;19;152728;-55
2022/09/16 12:11:18;;;;;;;;;;;;;;;21.11;55.64;101557.06;7279744;19;153869;-55
2022/09/16 12:13:48;;;;;;;;;;;;;;;21.14;55.70;101550.88;7283917;19;151670;-55
2022/09/16 12:16:15;;;;;;;;;;;;;;;21.14;48.56;101550.03;7279851;19;153383;-55
2022/09/16 12:18:47;;;;;;;;;;;;;;;21.11;46.73;101559.03;7281422;19;153614;-56
2022/09/16 12:21:25;;;;;;;;;;;;;;;21.10;44.94;101551.75;7284289;19;152231;-56
2022/09/16 12:23:58;;;;;;;;;;;;;;;21.07;44.00;101552.34;7283050;19;152655;-55
2022/09/16 12:26:28;;;;;;;;;;;;;;;21.03;43.21;101556.88;7283258;19;153388;-55
2022/09/16 12:29:01;;;;;;;;;;;;;;;21.00;42.55;101565.88;7280252;19;152046;-55
2022/09/16 12:34:00;;;;;;;;;;;;;;;20.99;42.08;101564.19;7233433;19;158723;-56
2022/09/16 12:36:31;;;;;;;;;;;;;;;21.01;42.01;101554.38;7281584;19;154354;-55
2022/09/16 12:38:59;;;;;;;;;;;;;;;20.97;41.85;101566.50;7279696;19;152842;-55
2022/09/16 12:41:29;;;;;;;;;;;;;;;20.92;41.87;101560.91;7276510;19;152423;-55
2022/09/16 12:44:05;;;;;;;;;;;;;;;20.89;41.36;101559.56;7266136;19;154622;-55
2022/09/16 12:46:54;;;;;;;;;;;;;;;20.91;40.86;101564.84;7269519;19;154847;-55
2022/09/16 12:49:36;;;;;;;;;;;;;;;20.89;40.97;101550.28;7273721;19;153048;-54
2022/09/16 12:52:06;;;;;;;;;;;;;;;20.85;40.58;101547.22;7276755;19;153515;-55